createdAt,value
2018-04-15T00:01:28.688Z,9.70
2018-04-15T00:03:56.314Z,12.33
2018-04-15T00:06:24.710Z,9.20
2018-04-15T00:08:53.015Z,9.77
2018-04-15T00:11:20.573Z,12.40
2018-04-15T00:13:48.142Z,12.23
2018-04-15T00:16:15.749Z,11.80
2018-04-15T00:18:44.121Z,10.57
2018-04-15T00:21:11.762Z,11.53
2018-04-15T00:23:39.330Z,12.73
2018-04-15T00:26:06.965Z,10.87
2018-04-15T00:28:34.568Z,14.50
2018-04-15T00:31:02.960Z,14.03
2018-04-15T00:33:31.329Z,9.37
2018-04-15T00:35:59.695Z,13.90
2018-04-15T00:38:27.333Z,11.07
2018-04-15T00:40:54.930Z,15.30
2018-04-15T00:43:23.301Z,10.60
2018-04-15T00:45:50.869Z,9.93
2018-04-15T00:48:19.210Z,13.33
2018-04-15T00:50:46.851Z,10.90
2018-04-15T00:53:14.443Z,11.20
2018-04-15T00:55:42.071Z,14.30
2018-04-15T00:58:09.661Z,11.67
2018-04-15T01:00:37.254Z,15.33
2018-04-15T01:03:05.598Z,13.00
2018-04-15T01:05:33.170Z,12.50
2018-04-15T01:08:00.791Z,11.87
2018-04-15T01:10:28.407Z,15.67
2018-04-15T01:12:55.969Z,13.07
2018-04-15T01:15:24.339Z,16.20
2018-04-15T01:17:52.758Z,12.30
2018-04-15T01:20:20.379Z,14.60
2018-04-15T01:22:47.987Z,12.47
2018-04-15T01:25:15.553Z,12.67
2018-04-15T01:27:43.218Z,13.97
2018-04-15T01:30:10.817Z,11.33
2018-04-15T01:32:38.438Z,11.80
2018-04-15T01:35:06.037Z,12.80
2018-04-15T01:37:33.662Z,10.93
2018-04-15T01:40:01.259Z,10.60
2018-04-15T01:42:28.813Z,11.83
2018-04-15T01:44:56.379Z,10.53
2018-04-15T01:47:24.718Z,9.87
2018-04-15T01:49:52.276Z,11.80
2018-04-15T01:52:19.888Z,11.80
2018-04-15T01:54:48.265Z,13.90
2018-04-15T01:57:15.839Z,12.03
2018-04-15T01:59:43.414Z,10.87
2018-04-15T02:02:11.018Z,12.20
2018-04-15T02:04:38.610Z,10.60
2018-04-15T02:07:07.030Z,11.00
2018-04-15T02:09:34.648Z,12.40
2018-04-15T02:12:02.989Z,10.63
2018-04-15T02:14:30.569Z,12.40
2018-04-15T02:16:58.145Z,12.43
2018-04-15T02:19:25.762Z,13.80
2018-04-15T02:21:53.382Z,11.40
2018-04-15T02:24:20.950Z,13.27
2018-04-15T02:26:48.569Z,13.23
2018-04-15T02:29:16.122Z,13.17
2018-04-15T02:31:43.759Z,14.00
2018-04-15T02:34:11.328Z,12.00
2018-04-15T02:36:38.889Z,9.80
2018-04-15T02:39:06.497Z,10.83
2018-04-15T02:41:34.092Z,13.13
2018-04-15T02:44:01.721Z,10.40
2018-04-15T02:46:29.330Z,14.37
2018-04-15T02:48:56.905Z,9.87
2018-04-15T02:51:24.542Z,10.93
2018-04-15T02:53:52.157Z,10.83
2018-04-15T02:56:19.752Z,11.83
2018-04-15T02:58:47.320Z,11.33
2018-04-15T03:01:14.886Z,11.80
2018-04-15T03:03:42.462Z,11.13
2018-04-15T03:06:10.087Z,13.90
2018-04-15T03:08:37.719Z,10.75
2018-04-15T03:11:05.321Z,11.37
2018-04-15T03:13:32.938Z,13.23
2018-04-15T03:16:01.310Z,10.87
2018-04-15T03:18:29.644Z,12.87
2018-04-15T03:20:57.232Z,10.13
2018-04-15T03:23:24.829Z,12.80
2018-04-15T03:25:52.416Z,14.30
2018-04-15T03:28:20.002Z,12.00
2018-04-15T03:30:47.616Z,12.53
2018-04-15T03:33:15.220Z,13.53
2018-04-15T03:35:42.861Z,12.47
2018-04-15T03:38:10.462Z,11.80
2018-04-15T03:40:38.820Z,11.17
2018-04-15T03:43:06.427Z,9.70
2018-04-15T03:45:33.978Z,11.27
2018-04-15T03:48:01.553Z,10.73
2018-04-15T03:50:39.981Z,14.03
2018-04-15T03:53:07.694Z,13.33
2018-04-15T03:55:35.257Z,11.20
2018-04-15T03:58:03.655Z,10.63
2018-04-15T04:00:31.499Z,10.93
2018-04-15T04:02:59.910Z,13.15
2018-04-15T04:05:27.482Z,11.40
2018-04-15T04:07:55.088Z,11.80
2018-04-15T04:10:22.729Z,11.40
2018-04-15T04:12:50.358Z,10.70
2018-04-15T04:15:17.964Z,10.88
2018-04-15T04:21:00.833Z,9.98
2018-04-15T04:23:40.976Z,10.60
2018-04-15T04:26:09.262Z,9.57
2018-04-15T04:28:37.544Z,12.60
2018-04-15T04:31:05.100Z,11.00
2018-04-15T04:33:33.385Z,14.13
2018-04-15T04:36:00.927Z,9.27
2018-04-15T04:38:29.225Z,13.40
2018-04-15T04:40:56.762Z,12.63
2018-04-15T04:43:25.081Z,10.88
2018-04-15T04:45:52.608Z,10.75
2018-04-15T04:48:20.915Z,14.63
2018-04-15T04:50:48.441Z,12.80
2018-04-15T04:53:16.748Z,11.40
2018-04-15T04:55:44.281Z,12.95
2018-04-15T04:58:11.833Z,15.23
2018-04-15T05:00:40.131Z,14.75
2018-04-15T05:03:07.681Z,13.95
2018-04-15T05:05:35.239Z,13.40
2018-04-15T05:08:02.776Z,12.98
2018-04-15T05:10:36.726Z,16.08
2018-04-15T05:16:17.479Z,13.45
2018-04-15T05:18:49.075Z,11.95
2018-04-15T05:21:16.714Z,12.45
2018-04-15T05:23:44.329Z,12.02
2018-04-15T05:26:11.961Z,10.52
2018-04-15T05:28:39.594Z,10.20
2018-04-15T05:31:07.185Z,14.03
2018-04-15T05:33:34.821Z,9.73
2018-04-15T05:36:02.394Z,10.87
2018-04-15T05:38:30.772Z,11.20
2018-04-15T05:40:58.320Z,11.67
2018-04-15T05:43:25.974Z,10.70
2018-04-15T05:45:53.585Z,11.50
2018-04-15T05:48:21.218Z,14.70
2018-04-15T05:50:48.844Z,11.60
2018-04-15T05:53:17.217Z,13.00
2018-04-15T05:55:45.572Z,13.77
2018-04-15T05:58:13.195Z,14.70
2018-04-15T06:00:40.811Z,12.50
2018-04-15T06:03:09.162Z,12.23
2018-04-15T06:05:39.982Z,13.87
2018-04-15T06:08:07.609Z,14.13
2018-04-15T06:10:35.212Z,11.03
2018-04-15T06:13:02.802Z,11.20
2018-04-15T06:15:30.382Z,14.30
2018-04-15T06:17:58.002Z,10.43
2018-04-15T06:20:25.592Z,10.50
2018-04-15T06:22:53.208Z,10.70
2018-04-15T06:25:20.781Z,9.90
2018-04-15T06:27:48.341Z,10.80
2018-04-15T06:30:15.916Z,22.43
2018-04-15T06:32:43.541Z,17.77
2018-04-15T06:35:11.137Z,18.37
2018-04-15T06:37:39.542Z,14.00
2018-04-15T06:40:26.991Z,10.17
2018-04-15T06:42:54.609Z,12.10
2018-04-15T06:45:22.988Z,9.00
2018-04-15T06:47:51.375Z,8.03
2018-04-15T06:56:17.153Z,8.93
2018-04-15T07:07:31.500Z,10.43
2018-04-15T07:09:59.123Z,8.60
2018-04-15T07:12:28.688Z,7.00
2018-04-15T07:14:56.356Z,7.00
2018-04-15T07:17:23.997Z,6.77
2018-04-15T07:19:51.599Z,8.47
2018-04-15T07:22:19.252Z,8.00
2018-04-15T07:24:47.604Z,7.10
2018-04-15T07:27:15.228Z,7.53
2018-04-15T07:29:42.816Z,7.40
2018-04-15T07:32:10.401Z,7.00
2018-04-15T07:34:37.997Z,6.83
2018-04-15T07:37:05.599Z,8.30
2018-04-15T07:39:33.242Z,13.33
2018-04-15T07:42:00.822Z,7.73
2018-04-15T07:44:29.257Z,6.10
2018-04-15T07:46:56.869Z,6.17
2018-04-15T07:49:24.448Z,5.87
2018-04-15T07:51:52.830Z,6.20
2018-04-15T07:54:21.248Z,5.63
2018-04-15T07:56:48.842Z,5.40
2018-04-15T07:59:16.479Z,5.47
2018-04-15T08:01:44.108Z,5.17
2018-04-15T08:04:11.671Z,5.60
2018-04-15T08:06:39.255Z,6.87
2018-04-15T08:09:06.840Z,6.73
2018-04-15T08:11:34.501Z,5.70
2018-04-15T08:14:02.090Z,5.80
2018-04-15T08:16:30.503Z,6.10
2018-04-15T08:18:58.098Z,5.83
2018-04-15T08:21:25.682Z,6.20
2018-04-15T08:23:53.279Z,7.37
2018-04-15T08:26:20.841Z,5.70
2018-04-15T08:28:48.421Z,5.40
2018-04-15T08:31:16.054Z,5.53
2018-04-15T08:33:43.650Z,5.20
2018-04-15T08:36:11.233Z,8.33
2018-04-15T08:38:38.888Z,5.37
2018-04-15T08:41:06.483Z,5.97
2018-04-15T08:43:34.822Z,6.43
2018-04-15T08:46:02.396Z,6.07
2018-04-15T08:48:30.068Z,7.57
2018-04-15T08:50:57.629Z,5.80
2018-04-15T08:53:25.978Z,7.73
2018-04-15T08:55:53.540Z,7.47
2018-04-15T08:58:21.139Z,6.10
2018-04-15T09:00:49.497Z,5.87
2018-04-15T09:03:17.097Z,6.10
2018-04-15T09:05:47.617Z,6.10
2018-04-15T09:08:15.205Z,7.70
2018-04-15T09:10:43.582Z,7.97
2018-04-15T09:13:11.189Z,7.13
2018-04-15T09:15:39.600Z,6.03
2018-04-15T09:18:07.222Z,5.30
2018-04-15T09:20:35.593Z,4.73
2018-04-15T09:23:03.188Z,5.60
2018-04-15T09:25:30.756Z,5.40
2018-04-15T09:27:58.323Z,6.50
2018-04-15T09:30:25.907Z,5.97
2018-04-15T09:32:53.535Z,6.10
2018-04-15T09:35:21.124Z,5.87
2018-04-15T09:37:48.790Z,7.37
2018-04-15T09:40:17.191Z,6.47
2018-04-15T09:42:44.809Z,6.67
2018-04-15T09:45:12.353Z,8.33
2018-04-15T09:47:39.955Z,7.60
2018-04-15T09:50:07.513Z,7.80
2018-04-15T09:52:35.182Z,8.07
2018-04-15T09:55:02.695Z,7.03
2018-04-15T09:57:30.250Z,7.20
2018-04-15T09:59:57.888Z,10.43
2018-04-15T10:02:26.239Z,8.57
2018-04-15T10:04:53.879Z,6.70
2018-04-15T10:07:21.464Z,6.43
2018-04-15T10:09:49.056Z,8.00
2018-04-15T10:12:16.667Z,6.30
2018-04-15T10:14:44.260Z,6.03
2018-04-15T10:17:11.849Z,6.37
2018-04-15T10:19:39.405Z,6.70
2018-04-15T10:22:07.011Z,6.20
2018-04-15T10:24:34.590Z,6.30
2018-04-15T10:27:02.965Z,7.00
2018-04-15T10:29:30.526Z,7.40
2018-04-15T10:31:58.277Z,8.20
2018-04-15T10:34:25.824Z,8.40
2018-04-15T10:36:53.424Z,7.17
2018-04-15T10:39:21.754Z,11.40
2018-04-15T10:41:49.351Z,8.37
2018-04-15T10:44:16.982Z,8.27
2018-04-15T10:46:44.585Z,8.10
2018-04-15T10:49:12.922Z,9.20
2018-04-15T10:51:40.499Z,10.70
2018-04-15T10:54:08.115Z,8.00
2018-04-15T10:56:35.713Z,11.93
2018-04-15T10:59:03.298Z,11.80
2018-04-15T11:01:30.860Z,9.80
2018-04-15T11:03:58.397Z,10.80
2018-04-15T11:06:25.961Z,9.80
2018-04-15T11:08:53.556Z,13.93
2018-04-15T11:11:21.938Z,10.97
2018-04-15T11:13:49.530Z,9.40
2018-04-15T11:16:17.129Z,10.07
2018-04-15T11:18:44.691Z,9.80
2018-04-15T11:21:12.284Z,10.57
2018-04-15T11:23:39.889Z,9.93
2018-04-15T11:26:07.462Z,11.03
2018-04-15T11:28:35.097Z,10.93
2018-04-15T11:31:02.700Z,11.23
2018-04-15T11:33:30.298Z,10.27
2018-04-15T11:35:57.926Z,12.73
2018-04-15T11:38:26.277Z,11.67
2018-04-15T11:40:53.862Z,9.83
2018-04-15T11:43:22.237Z,12.70
2018-04-15T11:45:49.827Z,11.40
2018-04-15T11:48:17.414Z,12.30
2018-04-15T11:50:46.804Z,11.37
2018-04-15T11:53:14.346Z,11.80
2018-04-15T11:55:43.894Z,15.77
2018-04-15T11:58:11.503Z,11.80
2018-04-15T12:00:39.091Z,11.93
2018-04-15T12:03:06.662Z,12.27
2018-04-15T12:05:34.217Z,12.80
2018-04-15T12:08:01.774Z,13.03
2018-04-15T12:10:29.380Z,14.07
2018-04-15T12:12:57.767Z,14.03
2018-04-15T12:15:26.173Z,11.17
2018-04-15T12:17:53.733Z,12.33
2018-04-15T12:20:21.366Z,11.90
2018-04-15T12:22:48.944Z,10.93
2018-04-15T12:25:16.552Z,10.83
2018-04-15T12:27:44.124Z,11.93
2018-04-15T12:30:11.742Z,14.23
2018-04-15T12:32:39.330Z,10.53
2018-04-15T12:35:06.950Z,11.80
2018-04-15T12:37:34.502Z,10.13
2018-04-15T12:40:02.115Z,10.80
2018-04-15T12:42:29.684Z,9.63
2018-04-15T12:44:57.263Z,9.50
2018-04-15T12:47:25.591Z,9.20
2018-04-15T12:49:53.214Z,9.50
2018-04-15T12:52:20.789Z,9.13
2018-04-15T12:54:48.333Z,9.37
2018-04-15T12:57:15.937Z,9.30
2018-04-15T12:59:43.581Z,9.07
2018-04-15T13:02:11.203Z,8.93
2018-04-15T13:04:39.551Z,10.53
2018-04-15T13:07:07.173Z,9.23
2018-04-15T13:09:34.818Z,8.43
2018-04-15T13:12:02.419Z,8.43
2018-04-15T13:14:29.967Z,8.20
2018-04-15T13:16:57.596Z,8.10
2018-04-15T13:19:25.173Z,7.27
2018-04-15T13:21:52.751Z,9.60
2018-04-15T13:24:20.341Z,8.40
2018-04-15T13:26:47.914Z,8.30
2018-04-15T13:29:16.257Z,7.70
2018-04-15T13:31:43.883Z,7.30
2018-04-15T13:34:11.450Z,9.17
2018-04-15T13:36:39.002Z,8.97
2018-04-15T13:39:06.626Z,7.73
2018-04-15T13:41:34.193Z,7.80
2018-04-15T13:44:02.538Z,7.40
2018-04-15T13:46:30.157Z,8.93
2018-04-15T13:48:57.732Z,7.93
2018-04-15T13:51:25.363Z,8.60
2018-04-15T13:53:53.681Z,8.40
2018-04-15T13:56:21.270Z,7.30
2018-04-15T13:58:48.837Z,8.97
2018-04-15T14:01:17.211Z,8.23
2018-04-15T14:03:44.770Z,7.70
2018-04-15T14:06:12.330Z,7.70
2018-04-15T14:08:39.958Z,8.60
2018-04-15T14:11:07.523Z,9.10
2018-04-15T14:13:35.101Z,8.57
2018-04-15T14:16:02.674Z,8.40
2018-04-15T14:18:30.285Z,8.83
2018-04-15T14:20:58.633Z,9.00
2018-04-15T14:23:26.250Z,9.83
2018-04-15T14:25:53.887Z,7.23
2018-04-15T14:28:22.256Z,7.40
2018-04-15T14:30:49.805Z,7.70
2018-04-15T14:33:17.370Z,7.20
2018-04-15T14:35:44.968Z,6.47
2018-04-15T14:38:12.609Z,6.97
2018-04-15T14:40:40.155Z,7.80
2018-04-15T14:43:07.749Z,8.03
2018-04-15T14:45:36.161Z,8.27
2018-04-15T14:48:03.769Z,8.80
2018-04-15T14:50:31.392Z,8.80
2018-04-15T14:52:58.944Z,8.80
2018-04-15T14:55:26.515Z,9.10
2018-04-15T14:57:54.079Z,8.43
2018-04-15T15:00:21.678Z,9.27
2018-04-15T15:02:49.295Z,9.20
2018-04-15T15:05:17.673Z,8.90
2018-04-15T15:07:45.304Z,8.80
2018-04-15T15:10:12.878Z,10.07
2018-04-15T15:12:40.497Z,8.07
2018-04-15T15:15:08.037Z,10.70
2018-04-15T15:17:35.651Z,9.30
2018-04-15T15:20:03.217Z,10.17
2018-04-15T15:22:30.834Z,10.23
2018-04-15T15:24:58.524Z,9.13
2018-04-15T15:27:26.078Z,9.20
2018-04-15T15:29:53.682Z,8.77
2018-04-15T15:32:21.267Z,10.10
2018-04-15T15:34:48.841Z,8.70
2018-04-15T15:37:16.404Z,8.80
2018-04-15T15:39:44.734Z,14.83
2018-04-15T15:42:12.363Z,9.13
2018-04-15T15:44:39.963Z,8.63
2018-04-15T15:47:07.585Z,9.20
2018-04-15T15:49:35.220Z,8.37
2018-04-15T15:52:02.789Z,11.37
2018-04-15T15:54:31.145Z,9.73
2018-04-15T15:56:58.717Z,11.23
2018-04-15T15:59:26.406Z,9.80
2018-04-15T16:01:53.998Z,12.40
2018-04-15T16:04:21.595Z,15.50
2018-04-15T16:06:49.220Z,8.83
2018-04-15T16:09:16.781Z,8.87
2018-04-15T16:11:44.366Z,8.17
2018-04-15T16:14:11.965Z,8.97
2018-04-15T16:16:39.550Z,8.70
2018-04-15T16:19:07.146Z,9.13
2018-04-15T16:21:34.769Z,11.50
2018-04-15T16:24:03.301Z,9.03
2018-04-15T16:26:31.657Z,9.03
2018-04-15T16:28:59.301Z,9.40
2018-04-15T16:31:27.766Z,8.23
2018-04-15T16:33:55.370Z,8.67
2018-04-15T16:36:22.972Z,8.00
2018-04-15T16:38:50.537Z,9.03
2018-04-15T16:41:18.218Z,9.70
2018-04-15T16:43:45.862Z,10.27
2018-04-15T16:46:13.462Z,9.53
2018-04-15T16:48:43.031Z,11.40
2018-04-15T16:51:10.671Z,9.30
2018-04-15T16:53:38.314Z,9.30
2018-04-15T16:56:05.924Z,7.90
2018-04-15T16:58:37.110Z,9.70
2018-04-15T17:01:04.737Z,9.73
2018-04-15T17:03:35.725Z,8.47
2018-04-15T17:06:04.166Z,10.13
2018-04-15T17:08:31.823Z,10.73
2018-04-15T17:10:59.414Z,7.87
2018-04-15T17:13:26.999Z,9.00
2018-04-15T17:15:54.595Z,8.33
2018-04-15T17:18:22.195Z,8.80
2018-04-15T17:20:50.562Z,8.17
2018-04-15T17:23:18.129Z,7.70
2018-04-15T17:25:45.714Z,10.10
2018-04-15T17:31:12.142Z,7.77
2018-04-15T17:33:39.792Z,8.00
2018-04-15T17:36:07.412Z,8.30
2018-04-15T17:38:35.018Z,10.77
2018-04-15T17:41:06.573Z,14.73
2018-04-15T17:43:34.206Z,8.60
2018-04-15T17:49:05.715Z,7.20
2018-04-15T17:54:32.808Z,9.67
2018-04-15T17:57:19.831Z,8.63
2018-04-15T17:59:47.416Z,12.33
2018-04-15T18:02:15.041Z,8.40
2018-04-15T18:04:42.633Z,9.30
2018-04-15T18:07:10.236Z,5.17
2018-04-15T18:09:37.866Z,8.07
2018-04-15T18:12:08.516Z,7.30
2018-04-15T18:14:37.157Z,6.00
2018-04-15T18:17:04.706Z,6.83
2018-04-15T18:19:32.332Z,6.10
2018-04-15T18:21:59.990Z,7.07
2018-04-15T18:24:27.598Z,8.00
2018-04-15T18:26:55.193Z,10.00
2018-04-15T18:29:22.785Z,8.50
2018-04-15T18:31:51.212Z,8.07
2018-04-15T18:34:18.775Z,7.23
2018-04-15T18:36:49.580Z,8.23
2018-04-15T18:39:23.125Z,7.00
2018-04-15T18:41:54.781Z,7.90
2018-04-15T18:44:25.542Z,8.43
2018-04-15T18:46:53.164Z,7.33
2018-04-15T18:49:20.766Z,7.73
2018-04-15T18:51:48.384Z,7.87
2018-04-15T18:54:15.964Z,6.77
2018-04-15T18:56:43.596Z,7.70
2018-04-15T18:59:11.222Z,7.70
2018-04-15T19:04:37.270Z,8.87
2018-04-15T19:07:21.451Z,8.60
2018-04-15T19:09:49.064Z,11.30
2018-04-15T19:12:17.401Z,8.00
2018-04-15T19:14:45.031Z,7.70
2018-04-15T19:17:12.642Z,8.17
2018-04-15T19:19:40.248Z,8.67
2018-04-15T19:22:07.832Z,9.83
2018-04-15T19:24:35.428Z,9.27
2018-04-15T19:27:03.012Z,11.23
2018-04-15T19:29:31.382Z,9.80
2018-04-15T19:31:59.779Z,7.90
2018-04-15T19:34:27.440Z,7.33
2018-04-15T19:36:55.065Z,7.30
2018-04-15T19:39:22.654Z,7.70
2018-04-15T19:41:51.106Z,6.97
2018-04-15T19:44:18.673Z,7.07
2018-04-15T19:46:46.295Z,11.40
2018-04-15T19:49:13.935Z,8.10
2018-04-15T19:51:41.557Z,8.67
2018-04-15T19:54:09.225Z,15.80
2018-04-15T19:56:36.844Z,15.80
2018-04-15T19:59:04.431Z,9.47
2018-04-15T20:01:32.057Z,8.50
2018-04-15T20:03:59.615Z,7.93
2018-04-15T20:06:27.209Z,9.30
2018-04-15T20:08:54.843Z,7.90
2018-04-15T20:11:22.487Z,11.07
2018-04-15T20:13:50.155Z,9.03
2018-04-15T20:16:18.475Z,10.80
2018-04-15T20:18:46.063Z,12.70
2018-04-15T20:21:13.689Z,8.73
2018-04-15T20:23:41.310Z,7.70
2018-04-15T20:26:08.918Z,7.07
2018-04-15T20:28:36.548Z,6.47
2018-04-15T20:31:04.180Z,7.53
2018-04-15T20:33:31.788Z,7.10
2018-04-15T20:35:59.401Z,7.57
2018-04-15T20:38:26.986Z,11.30
2018-04-15T20:40:54.671Z,9.90
2018-04-15T20:43:22.287Z,8.10
2018-04-15T20:45:49.878Z,10.20
2018-04-15T20:48:17.454Z,17.17
2018-04-15T20:50:45.092Z,11.13
2018-04-15T20:53:12.668Z,8.60
2018-04-15T20:55:40.317Z,8.83
2018-04-15T20:58:07.883Z,7.43
2018-04-15T21:00:35.495Z,7.17
2018-04-15T21:03:03.107Z,11.33
2018-04-15T21:05:30.679Z,9.20
2018-04-15T21:07:58.250Z,7.90
2018-04-15T21:10:25.839Z,13.47
2018-04-15T21:12:53.470Z,7.00
2018-04-15T21:15:21.056Z,6.83
2018-04-15T21:21:07.182Z,7.10
2018-04-15T21:23:34.781Z,6.90
2018-04-15T21:26:02.404Z,6.73
2018-04-15T21:28:30.041Z,9.93
2018-04-15T21:30:58.424Z,9.50
2018-04-15T21:33:26.801Z,9.67
2018-04-15T21:35:55.182Z,14.10
2018-04-15T21:38:23.587Z,10.47
2018-04-15T21:40:51.883Z,11.20
2018-04-15T21:43:19.533Z,9.73
2018-04-15T21:45:47.133Z,12.20
2018-04-15T21:48:14.729Z,13.43
2018-04-15T21:50:42.342Z,15.13
2018-04-15T21:53:09.919Z,8.80
2018-04-15T21:55:37.499Z,11.70
2018-04-15T21:58:05.865Z,12.60
2018-04-15T22:00:34.236Z,8.73
2018-04-15T22:03:01.843Z,9.70
2018-04-15T22:05:29.452Z,9.07
2018-04-15T22:07:57.087Z,8.63
2018-04-15T22:10:24.714Z,8.03
2018-04-15T22:12:52.293Z,8.53
2018-04-15T22:15:19.917Z,9.30
2018-04-15T22:17:48.266Z,8.13
2018-04-15T22:20:15.834Z,8.50
2018-04-15T22:22:43.433Z,9.33
2018-04-15T22:25:11.006Z,9.70
2018-04-15T22:27:38.571Z,9.97
2018-04-15T22:30:06.130Z,9.13
2018-04-15T22:32:33.700Z,10.23
2018-04-15T22:35:01.344Z,10.80
2018-04-15T22:37:29.018Z,11.20
2018-04-15T22:39:56.649Z,15.23
2018-04-15T22:42:24.208Z,14.20
2018-04-15T22:44:51.787Z,18.10
2018-04-15T22:47:19.375Z,17.50
2018-04-15T22:49:46.956Z,15.00
2018-04-15T22:52:14.561Z,15.37
2018-04-15T22:54:42.197Z,15.43
2018-04-15T22:57:13.617Z,17.13
2018-04-15T22:59:41.256Z,16.13
2018-04-15T23:02:08.908Z,17.07
2018-04-15T23:04:36.545Z,17.53
2018-04-15T23:07:04.186Z,15.73
2018-04-15T23:09:32.530Z,16.50
2018-04-15T23:12:00.129Z,17.77
2018-04-15T23:14:28.492Z,15.50
2018-04-15T23:16:56.866Z,15.87
2018-04-15T23:19:24.473Z,15.43
2018-04-15T23:21:52.117Z,16.57
2018-04-15T23:24:19.710Z,17.90
2018-04-15T23:26:47.298Z,17.30
2018-04-15T23:29:14.887Z,16.13
2018-04-15T23:31:43.255Z,16.47
2018-04-15T23:34:11.650Z,15.57
2018-04-15T23:36:39.274Z,16.60
2018-04-15T23:39:06.934Z,16.43
2018-04-15T23:41:34.520Z,15.90
2018-04-15T23:49:53.485Z,15.87
2018-04-15T23:52:21.106Z,15.27
2018-04-15T23:54:48.678Z,15.50
2018-04-15T23:57:16.232Z,15.30
2018-04-15T23:59:43.835Z,17.37
